sensor_id;sensor_type;location;lat;lon;timestamp;pressure;altitude;pressure_sealevel;temperature;humidity
68654;BME280;55636;51.108;13.622;2023-05-07T00:00:30;100735.56;;;9.76;62.92
68654;BME280;55636;51.108;13.622;2023-05-07T00:01:33;100741.09;;;9.76;62.85
68654;BME280;55636;51.108;13.622;2023-05-07T00:02:35;100750.44;;;9.75;62.83
68654;BME280;55636;51.108;13.622;2023-05-07T00:03:38;100755.94;;;9.75;62.77
68654;BME280;55636;51.108;13.622;2023-05-07T00:04:41;100750.44;;;9.75;62.81
68654;BME280;55636;51.108;13.622;2023-05-07T00:05:43;100751.50;;;9.74;62.86
68654;BME280;55636;51.108;13.622;2023-05-07T00:06:46;100748.75;;;9.74;63.02
68654;BME280;55636;51.108;13.622;2023-05-07T00:07:48;100756.22;;;9.74;62.92
68654;BME280;55636;51.108;13.622;2023-05-07T00:08:50;100760.03;;;9.73;62.88
68654;BME280;55636;51.108;13.622;2023-05-07T00:09:53;100759.22;;;9.72;63.12
68654;BME280;55636;51.108;13.622;2023-05-07T00:10:55;100761.97;;;9.72;62.86
68654;BME280;55636;51.108;13.622;2023-05-07T00:11:57;100754.53;;;9.73;63.06
68654;BME280;55636;51.108;13.622;2023-05-07T00:13:00;100757.53;;;9.71;62.94
68654;BME280;55636;51.108;13.622;2023-05-07T00:14:02;100750.34;;;9.70;62.91
68654;BME280;55636;51.108;13.622;2023-05-07T00:15:05;100757.53;;;9.71;63.06
68654;BME280;55636;51.108;13.622;2023-05-07T00:16:08;100752.00;;;9.71;62.90
68654;BME280;55636;51.108;13.622;2023-05-07T00:17:11;100754.78;;;9.71;62.81
68654;BME280;55636;51.108;13.622;2023-05-07T00:18:13;100752.00;;;9.71;62.91
68654;BME280;55636;51.108;13.622;2023-05-07T00:19:15;100748.41;;;9.70;63.01
68654;BME280;55636;51.108;13.622;2023-05-07T00:20:18;100752.00;;;9.71;63.01
68654;BME280;55636;51.108;13.622;2023-05-07T00:21:20;100740.97;;;9.71;63.00
68654;BME280;55636;51.108;13.622;2023-05-07T00:22:23;100748.41;;;9.70;63.01
68654;BME280;55636;51.108;13.622;2023-05-07T00:23:25;100740.97;;;9.71;62.93
68654;BME280;55636;51.108;13.622;2023-05-07T00:24:28;100751.16;;;9.70;63.11
68654;BME280;55636;51.108;13.622;2023-05-07T00:25:30;100742.66;;;9.72;62.86
68654;BME280;55636;51.108;13.622;2023-05-07T00:26:32;100749.25;;;9.71;63.01
68654;BME280;55636;51.108;13.622;2023-05-07T00:27:35;100756.69;;;9.70;63.03
68654;BME280;55636;51.108;13.622;2023-05-07T00:28:37;100754.78;;;9.71;63.15
68654;BME280;55636;51.108;13.622;2023-05-07T00:29:40;100747.56;;;9.70;62.96
68654;BME280;55636;51.108;13.622;2023-05-07T00:30:42;100749.25;;;9.71;62.91
68654;BME280;55636;51.108;13.622;2023-05-07T00:31:44;100754.78;;;9.71;62.76
68654;BME280;55636;51.108;13.622;2023-05-07T00:32:47;100753.91;;;9.70;63.04
68654;BME280;55636;51.108;13.622;2023-05-07T00:33:51;100750.34;;;9.70;62.98
68654;BME280;55636;51.108;13.622;2023-05-07T00:34:53;100754.16;;;9.69;62.95
68654;BME280;55636;51.108;13.622;2023-05-07T00:35:56;100749.50;;;9.69;62.97
68654;BME280;55636;51.108;13.622;2023-05-07T00:36:58;100753.91;;;9.70;62.88
68654;BME280;55636;51.108;13.622;2023-05-07T00:38:00;100747.56;;;9.70;62.93
68654;BME280;55636;51.108;13.622;2023-05-07T00:39:03;100754.78;;;9.71;62.90
68654;BME280;55636;51.108;13.622;2023-05-07T00:40:06;100760.28;;;9.71;62.70
68654;BME280;55636;51.108;13.622;2023-05-07T00:41:10;100757.53;;;9.71;62.83
68654;BME280;55636;51.108;13.622;2023-05-07T00:42:12;100757.53;;;9.71;62.83
68654;BME280;55636;51.108;13.622;2023-05-07T00:43:15;100752.84;;;9.71;62.71
68654;BME280;55636;51.108;13.622;2023-05-07T00:44:17;100749.25;;;9.71;62.96
68654;BME280;55636;51.108;13.622;2023-05-07T00:45:21;100749.25;;;9.71;62.88
68654;BME280;55636;51.108;13.622;2023-05-07T00:46:23;100742.66;;;9.72;62.91
68654;BME280;55636;51.108;13.622;2023-05-07T00:47:26;100739.06;;;9.71;62.86
68654;BME280;55636;51.108;13.622;2023-05-07T00:48:29;100737.16;;;9.72;62.73
68654;BME280;55636;51.108;13.622;2023-05-07T00:49:41;100751.75;;;9.73;62.97
68654;BME280;55636;51.108;13.622;2023-05-07T00:50:44;100741.81;;;9.71;62.84
68654;BME280;55636;51.108;13.622;2023-05-07T00:51:47;100746.25;;;9.73;62.78
68654;BME280;55636;51.108;13.622;2023-05-07T00:52:50;100747.06;;;9.73;62.82
68654;BME280;55636;51.108;13.622;2023-05-07T00:53:53;100738.78;;;9.73;62.69
68654;BME280;55636;51.108;13.622;2023-05-07T00:54:55;100741.56;;;9.73;62.75
68654;BME280;55636;51.108;13.622;2023-05-07T00:55:58;100737.16;;;9.72;62.80
68654;BME280;55636;51.108;13.622;2023-05-07T00:57:02;100742.66;;;9.72;63.05
68654;BME280;55636;51.108;13.622;2023-05-07T00:58:06;100746.50;;;9.71;63.06
68654;BME280;55636;51.108;13.622;2023-05-07T00:59:08;100742.88;;;9.70;62.79
68654;BME280;55636;51.108;13.622;2023-05-07T01:00:11;100744.56;;;9.71;62.99
68654;BME280;55636;51.108;13.622;2023-05-07T01:01:15;100743.75;;;9.71;62.96
68654;BME280;55636;51.108;13.622;2023-05-07T01:02:20;100755.59;;;9.71;62.94
68654;BME280;55636;51.108;13.622;2023-05-07T01:03:23;100743.50;;;9.73;62.95
68654;BME280;55636;51.108;13.622;2023-05-07T01:04:26;100745.41;;;9.72;62.77
68654;BME280;55636;51.108;13.622;2023-05-07T01:05:29;100742.66;;;9.72;62.69
68654;BME280;55636;51.108;13.622;2023-05-07T01:06:33;100740.97;;;9.71;62.70
68654;BME280;55636;51.108;13.622;2023-05-07T01:07:37;100749.25;;;9.71;62.67
68654;BME280;55636;51.108;13.622;2023-05-07T01:08:40;100740.97;;;9.71;62.62
68654;BME280;55636;51.108;13.622;2023-05-07T01:09:43;100740.13;;;9.70;62.48
68654;BME280;55636;51.108;13.622;2023-05-07T01:10:46;100741.81;;;9.71;62.60
68654;BME280;55636;51.108;13.622;2023-05-07T01:11:50;100740.97;;;9.71;62.36
68654;BME280;55636;51.108;13.622;2023-05-07T01:12:53;100741.22;;;9.69;62.52
68654;BME280;55636;51.108;13.622;2023-05-07T01:13:58;100746.75;;;9.69;62.70
68654;BME280;55636;51.108;13.622;2023-05-07T01:15:02;100752.28;;;9.69;62.62
68654;BME280;55636;51.108;13.622;2023-05-07T01:16:04;100752.28;;;9.69;62.55
68654;BME280;55636;51.108;13.622;2023-05-07T01:17:07;100748.66;;;9.69;62.50
68654;BME280;55636;51.108;13.622;2023-05-07T01:18:10;100737.63;;;9.69;62.49
68654;BME280;55636;51.108;13.622;2023-05-07T01:19:14;100748.66;;;9.69;62.67
68654;BME280;55636;51.108;13.622;2023-05-07T01:20:20;100751.41;;;9.69;62.54
68654;BME280;55636;51.108;13.622;2023-05-07T01:21:25;100753.09;;;9.70;62.54
68654;BME280;55636;51.108;13.622;2023-05-07T01:22:36;100756.94;;;9.69;62.71
68654;BME280;55636;51.108;13.622;2023-05-07T01:23:40;100758.00;;;9.68;62.68
68654;BME280;55636;51.108;13.622;2023-05-07T01:24:43;100749.72;;;9.68;62.55
68654;BME280;55636;51.108;13.622;2023-05-07T01:25:53;100755.25;;;9.68;62.88
68654;BME280;55636;51.108;13.622;2023-05-07T01:26:58;100749.72;;;9.68;62.64
68654;BME280;55636;51.108;13.622;2023-05-07T01:28:00;100749.72;;;9.68;62.65
68654;BME280;55636;51.108;13.622;2023-05-07T01:29:06;100760.75;;;9.68;62.55
68654;BME280;55636;51.108;13.622;2023-05-07T01:30:10;100748.91;;;9.67;62.43
68654;BME280;55636;51.108;13.622;2023-05-07T01:31:13;100746.16;;;9.67;62.33
68654;BME280;55636;51.108;13.622;2023-05-07T01:32:19;100759.94;;;9.67;62.36
68654;BME280;55636;51.108;13.622;2023-05-07T01:33:23;100750.84;;;9.67;62.24
68654;BME280;55636;51.108;13.622;2023-05-07T01:34:28;100751.91;;;9.66;62.57
68654;BME280;55636;51.108;13.622;2023-05-07T01:35:36;100757.69;;;9.64;62.47
68654;BME280;55636;51.108;13.622;2023-05-07T01:36:41;100764.03;;;9.65;62.40
68654;BME280;55636;51.108;13.622;2023-05-07T01:37:46;100758.50;;;9.65;62.21
68654;BME280;55636;51.108;13.622;2023-05-07T01:38:49;100756.81;;;9.64;62.39
68654;BME280;55636;51.108;13.622;2023-05-07T01:39:52;100757.94;;;9.63;62.32
68654;BME280;55636;51.108;13.622;2023-05-07T01:40:56;100758.16;;;9.61;62.53
68654;BME280;55636;51.108;13.622;2023-05-07T01:41:59;100759.00;;;9.62;62.31
68654;BME280;55636;51.108;13.622;2023-05-07T01:43:02;100764.78;;;9.60;62.45
68654;BME280;55636;51.108;13.622;2023-05-07T01:44:08;100764.78;;;9.60;62.45
68654;BME280;55636;51.108;13.622;2023-05-07T01:45:11;100767.75;;;9.59;62.37
68654;BME280;55636;51.108;13.622;2023-05-07T01:46:14;100770.28;;;9.60;62.55
68654;BME280;55636;51.108;13.622;2023-05-07T01:47:17;100771.63;;;9.58;62.41
68654;BME280;55636;51.108;13.622;2023-05-07T01:48:20;100762.22;;;9.59;62.54
68654;BME280;55636;51.108;13.622;2023-05-07T01:49:22;100762.22;;;9.59;62.41
68654;BME280;55636;51.108;13.622;2023-05-07T01:50:27;100763.34;;;9.58;62.42
68654;BME280;55636;51.108;13.622;2023-05-07T01:51:29;100766.09;;;9.58;62.40
68654;BME280;55636;51.108;13.622;2023-05-07T01:52:32;100758.66;;;9.58;62.38
68654;BME280;55636;51.108;13.622;2023-05-07T01:53:36;100762.47;;;9.57;62.41
68654;BME280;55636;51.108;13.622;2023-05-07T01:54:39;100760.78;;;9.56;62.39
68654;BME280;55636;51.108;13.622;2023-05-07T01:55:41;100751.69;;;9.56;62.64
68654;BME280;55636;51.108;13.622;2023-05-07T01:56:44;100753.63;;;9.55;62.49
68654;BME280;55636;51.108;13.622;2023-05-07T01:57:47;100764.66;;;9.55;62.62
68654;BME280;55636;51.108;13.622;2023-05-07T01:58:50;100756.59;;;9.53;62.48
68654;BME280;55636;51.108;13.622;2023-05-07T01:59:53;100757.72;;;9.52;62.65
68654;BME280;55636;51.108;13.622;2023-05-07T02:00:55;100757.47;;;9.54;62.45
68654;BME280;55636;51.108;13.622;2023-05-07T02:01:58;100757.72;;;9.52;62.38
68654;BME280;55636;51.108;13.622;2023-05-07T02:03:00;100751.34;;;9.52;62.54
68654;BME280;55636;51.108;13.622;2023-05-07T02:04:16;100758.78;;;9.51;62.56
68654;BME280;55636;51.108;13.622;2023-05-07T02:05:19;100764.31;;;9.51;62.49
68654;BME280;55636;51.108;13.622;2023-05-07T02:06:27;100768.13;;;9.50;62.45
68654;BME280;55636;51.108;13.622;2023-05-07T02:07:35;100768.97;;;9.51;62.46
68654;BME280;55636;51.108;13.622;2023-05-07T02:08:37;100757.09;;;9.50;62.63
68654;BME280;55636;51.108;13.622;2023-05-07T02:09:40;100766.22;;;9.51;62.62
68654;BME280;55636;51.108;13.622;2023-05-07T02:10:43;100770.91;;;9.50;62.59
68654;BME280;55636;51.108;13.622;2023-05-07T02:11:45;100766.22;;;9.51;62.54
68654;BME280;55636;51.108;13.622;2023-05-07T02:12:47;100762.63;;;9.50;62.51
68654;BME280;55636;51.108;13.622;2023-05-07T02:13:50;100761.78;;;9.50;62.54
68654;BME280;55636;51.108;13.622;2023-05-07T02:14:52;100758.19;;;9.49;62.79
68654;BME280;55636;51.108;13.622;2023-05-07T02:15:56;100770.91;;;9.50;62.77
68654;BME280;55636;51.108;13.622;2023-05-07T02:17:00;100770.06;;;9.50;62.78
68654;BME280;55636;51.108;13.622;2023-05-07T02:18:07;100758.44;;;9.48;62.85
68654;BME280;55636;51.108;13.622;2023-05-07T02:19:10;100767.53;;;9.48;62.85
68654;BME280;55636;51.108;13.622;2023-05-07T02:20:12;100767.53;;;9.48;62.69
68654;BME280;55636;51.108;13.622;2023-05-07T02:21:16;100773.03;;;9.48;62.79
68654;BME280;55636;51.108;13.622;2023-05-07T02:22:18;100765.88;;;9.47;62.78
68654;BME280;55636;51.108;13.622;2023-05-07T02:23:21;100774.97;;;9.48;62.87
68654;BME280;55636;51.108;13.622;2023-05-07T02:24:23;100773.03;;;9.48;62.89
68654;BME280;55636;51.108;13.622;2023-05-07T02:25:26;100774.97;;;9.48;62.90
68654;BME280;55636;51.108;13.622;2023-05-07T02:26:28;100776.66;;;9.49;62.71
68654;BME280;55636;51.108;13.622;2023-05-07T02:27:31;100781.31;;;9.48;62.76
68654;BME280;55636;51.108;13.622;2023-05-07T02:28:33;100781.31;;;9.48;62.72
68654;BME280;55636;51.108;13.622;2023-05-07T02:29:39;100783.25;;;9.48;62.65
68654;BME280;55636;51.108;13.622;2023-05-07T02:30:42;100781.31;;;9.48;62.56
68654;BME280;55636;51.108;13.622;2023-05-07T02:31:45;100774.97;;;9.48;62.75
68654;BME280;55636;51.108;13.622;2023-05-07T02:32:48;100773.28;;;9.47;62.76
68654;BME280;55636;51.108;13.622;2023-05-07T02:33:51;100778.00;;;9.46;62.68
68654;BME280;55636;51.108;13.622;2023-05-07T02:34:53;100776.91;;;9.47;62.92
68654;BME280;55636;51.108;13.622;2023-05-07T02:35:55;100778.00;;;9.46;62.89
68654;BME280;55636;51.108;13.622;2023-05-07T02:36:58;100776.31;;;9.45;62.94
68654;BME280;55636;51.108;13.622;2023-05-07T02:38:01;100780.13;;;9.44;62.89
68654;BME280;55636;51.108;13.622;2023-05-07T02:39:03;100780.38;;;9.43;62.89
68654;BME280;55636;51.108;13.622;2023-05-07T02:40:06;100776.81;;;9.42;62.90
68654;BME280;55636;51.108;13.622;2023-05-07T02:41:09;100778.69;;;9.42;62.88
68654;BME280;55636;51.108;13.622;2023-05-07T02:42:11;100776.81;;;9.42;62.69
68654;BME280;55636;51.108;13.622;2023-05-07T02:43:13;100777.88;;;9.41;62.88
68654;BME280;55636;51.108;13.622;2023-05-07T02:44:19;100775.94;;;9.42;62.84
68654;BME280;55636;51.108;13.622;2023-05-07T02:45:24;100779.81;;;9.41;62.80
68654;BME280;55636;51.108;13.622;2023-05-07T02:46:29;100778.94;;;9.40;62.74
68654;BME280;55636;51.108;13.622;2023-05-07T02:47:36;100778.13;;;9.40;62.75
68654;BME280;55636;51.108;13.622;2023-05-07T02:48:39;100778.13;;;9.40;63.01
68654;BME280;55636;51.108;13.622;2023-05-07T02:49:42;100776.44;;;9.38;62.99
68654;BME280;55636;51.108;13.622;2023-05-07T02:50:44;100780.28;;;9.37;63.02
68654;BME280;55636;51.108;13.622;2023-05-07T02:51:49;100770.56;;;9.35;63.07
68654;BME280;55636;51.108;13.622;2023-05-07T02:52:55;100777.75;;;9.36;62.98
68654;BME280;55636;51.108;13.622;2023-05-07T02:53:58;100778.25;;;9.33;63.24
68654;BME280;55636;51.108;13.622;2023-05-07T02:55:00;100769.97;;;9.33;63.13
68654;BME280;55636;51.108;13.622;2023-05-07T02:56:04;100772.75;;;9.33;63.13
68654;BME280;55636;51.108;13.622;2023-05-07T02:57:07;100773.81;;;9.32;63.05
68654;BME280;55636;51.108;13.622;2023-05-07T02:58:10;100777.41;;;9.32;62.96
68654;BME280;55636;51.108;13.622;2023-05-07T02:59:14;100778.47;;;9.31;63.07
68654;BME280;55636;51.108;13.622;2023-05-07T03:00:18;100771.31;;;9.30;63.21
68654;BME280;55636;51.108;13.622;2023-05-07T03:01:28;100780.41;;;9.31;63.27
68654;BME280;55636;51.108;13.622;2023-05-07T03:02:37;100777.03;;;9.29;63.25
68654;BME280;55636;51.108;13.622;2023-05-07T03:03:40;100767.13;;;9.28;63.28
68654;BME280;55636;51.108;13.622;2023-05-07T03:04:43;100771.53;;;9.29;63.40
68654;BME280;55636;51.108;13.622;2023-05-07T03:05:45;100770.44;;;9.30;63.26
68654;BME280;55636;51.108;13.622;2023-05-07T03:06:48;100761.59;;;9.28;63.13
68654;BME280;55636;51.108;13.622;2023-05-07T03:07:50;100769.00;;;9.27;63.32
68654;BME280;55636;51.108;13.622;2023-05-07T03:08:53;100777.28;;;9.27;63.37
68654;BME280;55636;51.108;13.622;2023-05-07T03:09:55;100774.16;;;9.24;63.58
68654;BME280;55636;51.108;13.622;2023-05-07T03:10:57;100759.81;;;9.21;63.57
68654;BME280;55636;51.108;13.622;2023-05-07T03:12:00;100761.50;;;9.23;63.40
68654;BME280;55636;51.108;13.622;2023-05-07T03:13:04;100767.81;;;9.23;63.47
68654;BME280;55636;51.108;13.622;2023-05-07T03:14:07;100758.72;;;9.23;63.21
68654;BME280;55636;51.108;13.622;2023-05-07T03:15:09;100768.06;;;9.21;63.44
68654;BME280;55636;51.108;13.622;2023-05-07T03:16:13;100754.28;;;9.21;63.41
68654;BME280;55636;51.108;13.622;2023-05-07T03:17:16;100762.81;;;9.20;63.63
68654;BME280;55636;51.108;13.622;2023-05-07T03:18:18;100763.63;;;9.20;63.56
68654;BME280;55636;51.108;13.622;2023-05-07T03:19:21;100772.97;;;9.19;63.62
68654;BME280;55636;51.108;13.622;2023-05-07T03:20:23;100764.13;;;9.17;63.73
68654;BME280;55636;51.108;13.622;2023-05-07T03:21:25;100778.75;;;9.18;63.67
68654;BME280;55636;51.108;13.622;2023-05-07T03:22:28;100778.50;;;9.19;63.65
68654;BME280;55636;51.108;13.622;2023-05-07T03:23:31;100787.00;;;9.18;63.76
68654;BME280;55636;51.108;13.622;2023-05-07T03:24:33;100780.66;;;9.17;63.71
68654;BME280;55636;51.108;13.622;2023-05-07T03:25:36;100769.41;;;9.19;63.59
68654;BME280;55636;51.108;13.622;2023-05-07T03:26:39;100772.66;;;9.16;63.66
68654;BME280;55636;51.108;13.622;2023-05-07T03:27:41;100778.97;;;9.16;63.79
68654;BME280;55636;51.108;13.622;2023-05-07T03:28:44;100777.06;;;9.17;63.55
68654;BME280;55636;51.108;13.622;2023-05-07T03:29:48;100774.78;;;9.14;63.88
68654;BME280;55636;51.108;13.622;2023-05-07T03:30:51;100775.03;;;9.12;64.02
68654;BME280;55636;51.108;13.622;2023-05-07T03:31:53;100775.03;;;9.12;63.80
68654;BME280;55636;51.108;13.622;2023-05-07T03:32:55;100783.56;;;9.11;63.68
68654;BME280;55636;51.108;13.622;2023-05-07T03:33:58;100776.09;;;9.11;63.60
68654;BME280;55636;51.108;13.622;2023-05-07T03:35:01;100776.09;;;9.11;63.66
68654;BME280;55636;51.108;13.622;2023-05-07T03:36:03;100783.31;;;9.12;63.60
68654;BME280;55636;51.108;13.622;2023-05-07T03:37:06;100787.97;;;9.12;63.73
68654;BME280;55636;51.108;13.622;2023-05-07T03:38:09;100782.69;;;9.10;63.73
68654;BME280;55636;51.108;13.622;2023-05-07T03:39:12;100792.66;;;9.11;63.67
68654;BME280;55636;51.108;13.622;2023-05-07T03:40:15;100781.88;;;9.10;63.68
68654;BME280;55636;51.108;13.622;2023-05-07T03:41:22;100784.63;;;9.10;63.60
68654;BME280;55636;51.108;13.622;2023-05-07T03:42:25;100786.78;;;9.08;63.67
68654;BME280;55636;51.108;13.622;2023-05-07T03:43:28;100790.13;;;9.10;63.58
68654;BME280;55636;51.108;13.622;2023-05-07T03:44:37;100785.69;;;9.09;63.48
68654;BME280;55636;51.108;13.622;2023-05-07T03:45:39;100785.94;;;9.07;63.36
68654;BME280;55636;51.108;13.622;2023-05-07T03:46:49;100785.69;;;9.09;63.36
68654;BME280;55636;51.108;13.622;2023-05-07T03:47:51;100787.84;;;9.07;63.46
68654;BME280;55636;51.108;13.622;2023-05-07T03:48:55;100786.19;;;9.06;63.50
68654;BME280;55636;51.108;13.622;2023-05-07T03:49:58;100795.28;;;9.06;63.46
68654;BME280;55636;51.108;13.622;2023-05-07T03:51:01;100793.84;;;9.03;63.50
68654;BME280;55636;51.108;13.622;2023-05-07T03:52:08;100791.91;;;9.04;63.50
68654;BME280;55636;51.108;13.622;2023-05-07T03:53:10;100796.59;;;9.03;63.56
68654;BME280;55636;51.108;13.622;2023-05-07T03:54:14;100801.28;;;9.03;63.36
68654;BME280;55636;51.108;13.622;2023-05-07T03:55:19;100800.19;;;9.04;63.48
68654;BME280;55636;51.108;13.622;2023-05-07T03:56:27;100799.34;;;9.03;63.42
68654;BME280;55636;51.108;13.622;2023-05-07T03:57:31;100793.03;;;9.03;63.45
68654;BME280;55636;51.108;13.622;2023-05-07T03:58:34;100790.25;;;9.03;63.51
68654;BME280;55636;51.108;13.622;2023-05-07T03:59:41;100793.22;;;9.01;63.56
68654;BME280;55636;51.108;13.622;2023-05-07T04:00:44;100799.59;;;9.02;63.41
68654;BME280;55636;51.108;13.622;2023-05-07T04:01:54;100796.84;;;9.02;63.56
68654;BME280;55636;51.108;13.622;2023-05-07T04:02:58;100798.75;;;9.01;63.47
68654;BME280;55636;51.108;13.622;2023-05-07T04:04:04;100790.72;;;9.00;63.46
68654;BME280;55636;51.108;13.622;2023-05-07T04:05:10;100792.41;;;9.01;63.35
68654;BME280;55636;51.108;13.622;2023-05-07T04:06:15;100792.41;;;9.01;63.31
68654;BME280;55636;51.108;13.622;2023-05-07T04:07:21;100792.41;;;9.01;63.30
68654;BME280;55636;51.108;13.622;2023-05-07T04:08:25;100802.59;;;9.00;63.33
68654;BME280;55636;51.108;13.622;2023-05-07T04:09:29;100799.84;;;9.00;63.41
68654;BME280;55636;51.108;13.622;2023-05-07T04:10:32;100798.16;;;8.99;63.34
68654;BME280;55636;51.108;13.622;2023-05-07T04:11:38;100797.56;;;8.97;63.41
68654;BME280;55636;51.108;13.622;2023-05-07T04:12:44;100797.56;;;8.97;63.49
68654;BME280;55636;51.108;13.622;2023-05-07T04:13:51;100802.81;;;8.99;63.43
68654;BME280;55636;51.108;13.622;2023-05-07T04:14:57;100799.22;;;8.98;63.49
68654;BME280;55636;51.108;13.622;2023-05-07T04:16:01;100796.72;;;8.97;63.44
68654;BME280;55636;51.108;13.622;2023-05-07T04:17:03;100800.06;;;8.99;63.34
68654;BME280;55636;51.108;13.622;2023-05-07T04:18:06;100803.06;;;8.97;63.42
68654;BME280;55636;51.108;13.622;2023-05-07T04:19:09;100803.06;;;8.97;63.42
68654;BME280;55636;51.108;13.622;2023-05-07T04:20:15;100804.75;;;8.98;63.35
68654;BME280;55636;51.108;13.622;2023-05-07T04:21:20;100805.00;;;8.97;63.42
68654;BME280;55636;51.108;13.622;2023-05-07T04:22:25;100806.91;;;8.96;63.44
68654;BME280;55636;51.108;13.622;2023-05-07T04:23:27;100813.50;;;8.95;63.39
68654;BME280;55636;51.108;13.622;2023-05-07T04:24:32;100804.16;;;8.96;63.38
68654;BME280;55636;51.108;13.622;2023-05-07T04:25:38;100808.00;;;8.95;63.34
68654;BME280;55636;51.108;13.622;2023-05-07T04:26:46;100815.19;;;8.96;63.40
68654;BME280;55636;51.108;13.622;2023-05-07T04:27:50;100818.53;;;8.98;63.49
68654;BME280;55636;51.108;13.622;2023-05-07T04:28:52;100827.03;;;8.97;63.33
68654;BME280;55636;51.108;13.622;2023-05-07T04:29:54;100820.69;;;8.96;63.42
68654;BME280;55636;51.108;13.622;2023-05-07T04:30:57;100817.94;;;8.96;63.34
68654;BME280;55636;51.108;13.622;2023-05-07T04:32:00;100820.69;;;8.96;63.60
68654;BME280;55636;51.108;13.622;2023-05-07T04:33:04;100816.50;;;8.94;63.43
68654;BME280;55636;51.108;13.622;2023-05-07T04:34:06;100810.75;;;8.95;63.56
68654;BME280;55636;51.108;13.622;2023-05-07T04:35:09;100815.41;;;8.95;63.74
68654;BME280;55636;51.108;13.622;2023-05-07T04:36:13;100819.25;;;8.94;63.61
68654;BME280;55636;51.108;13.622;2023-05-07T04:37:22;100818.16;;;8.95;63.41
68654;BME280;55636;51.108;13.622;2023-05-07T04:38:25;100827.28;;;8.95;63.46
68654;BME280;55636;51.108;13.622;2023-05-07T04:39:28;100817.34;;;8.94;63.28
68654;BME280;55636;51.108;13.622;2023-05-07T04:40:31;100834.69;;;8.95;63.38
68654;BME280;55636;51.108;13.622;2023-05-07T04:41:36;100831.94;;;8.95;63.32
68654;BME280;55636;51.108;13.622;2023-05-07T04:42:39;100833.03;;;8.94;63.33
68654;BME280;55636;51.108;13.622;2023-05-07T04:43:42;100838.53;;;8.94;63.33
68654;BME280;55636;51.108;13.622;2023-05-07T04:44:46;100838.53;;;8.94;63.30
68654;BME280;55636;51.108;13.622;2023-05-07T04:45:51;100841.31;;;8.94;63.49
68654;BME280;55636;51.108;13.622;2023-05-07T04:46:57;100839.63;;;8.93;63.49
68654;BME280;55636;51.108;13.622;2023-05-07T04:48:00;100842.13;;;8.94;63.38
68654;BME280;55636;51.108;13.622;2023-05-07T04:49:03;100842.13;;;8.94;63.45
68654;BME280;55636;51.108;13.622;2023-05-07T04:50:06;100837.69;;;8.93;63.58
68654;BME280;55636;51.108;13.622;2023-05-07T04:51:10;100836.00;;;8.92;63.68
68654;BME280;55636;51.108;13.622;2023-05-07T04:52:13;100832.41;;;8.92;63.63
68654;BME280;55636;51.108;13.622;2023-05-07T04:53:16;100840.94;;;8.90;63.74
68654;BME280;55636;51.108;13.622;2023-05-07T04:54:19;100841.75;;;8.91;63.79
68654;BME280;55636;51.108;13.622;2023-05-07T04:55:22;100842.25;;;8.87;63.87
68654;BME280;55636;51.108;13.622;2023-05-07T04:56:27;100843.94;;;8.88;63.72
68654;BME280;55636;51.108;13.622;2023-05-07T04:57:30;100854.34;;;8.86;63.75
68654;BME280;55636;51.108;13.622;2023-05-07T04:58:32;100848.59;;;8.88;63.74
68654;BME280;55636;51.108;13.622;2023-05-07T04:59:35;100851.94;;;8.90;63.83
68654;BME280;55636;51.108;13.622;2023-05-07T05:00:37;100849.19;;;8.90;63.66
68654;BME280;55636;51.108;13.622;2023-05-07T05:01:42;100857.22;;;8.92;63.67
68654;BME280;55636;51.108;13.622;2023-05-07T05:02:44;100850.28;;;8.89;63.74
68654;BME280;55636;51.108;13.622;2023-05-07T05:03:49;100850.03;;;8.91;63.78
68654;BME280;55636;51.108;13.622;2023-05-07T05:04:53;100853.84;;;8.90;63.75
68654;BME280;55636;51.108;13.622;2023-05-07T05:05:57;100858.53;;;8.89;63.79
68654;BME280;55636;51.108;13.622;2023-05-07T05:07:05;100852.78;;;8.91;63.69
68654;BME280;55636;51.108;13.622;2023-05-07T05:08:07;100857.22;;;8.92;63.92
68654;BME280;55636;51.108;13.622;2023-05-07T05:09:12;100855.28;;;8.92;63.44
68654;BME280;55636;51.108;13.622;2023-05-07T05:10:16;100854.47;;;8.92;63.63
68654;BME280;55636;51.108;13.622;2023-05-07T05:11:20;100848.94;;;8.92;63.60
68654;BME280;55636;51.108;13.622;2023-05-07T05:12:23;100845.13;;;8.93;63.72
68654;BME280;55636;51.108;13.622;2023-05-07T05:13:25;100847.03;;;8.92;63.69
68654;BME280;55636;51.108;13.622;2023-05-07T05:14:29;100848.13;;;8.91;63.64
68654;BME280;55636;51.108;13.622;2023-05-07T05:15:31;100847.88;;;8.93;63.55
68654;BME280;55636;51.108;13.622;2023-05-07T05:16:35;100846.19;;;8.92;63.35
68654;BME280;55636;51.108;13.622;2023-05-07T05:17:38;100843.44;;;8.92;63.41
68654;BME280;55636;51.108;13.622;2023-05-07T05:18:41;100841.31;;;8.94;63.33
68654;BME280;55636;51.108;13.622;2023-05-07T05:19:46;100844.06;;;8.94;63.38
68654;BME280;55636;51.108;13.622;2023-05-07T05:20:48;100844.06;;;8.94;63.33
68654;BME280;55636;51.108;13.622;2023-05-07T05:21:50;100848.72;;;8.93;63.26
68654;BME280;55636;51.108;13.622;2023-05-07T05:22:53;100846.19;;;8.92;63.34
68654;BME280;55636;51.108;13.622;2023-05-07T05:23:55;100850.88;;;8.91;63.34
68654;BME280;55636;51.108;13.622;2023-05-07T05:24:59;100848.94;;;8.92;63.30
68654;BME280;55636;51.108;13.622;2023-05-07T05:26:02;100842.38;;;8.93;63.21
68654;BME280;55636;51.108;13.622;2023-05-07T05:27:07;100847.03;;;8.92;63.20
68654;BME280;55636;51.108;13.622;2023-05-07T05:28:09;100848.72;;;8.93;63.29
68654;BME280;55636;51.108;13.622;2023-05-07T05:29:12;100849.56;;;8.94;63.38
68654;BME280;55636;51.108;13.622;2023-05-07T05:30:16;100853.16;;;8.94;63.25
68654;BME280;55636;51.108;13.622;2023-05-07T05:31:21;100856.53;;;8.96;63.37
68654;BME280;55636;51.108;13.622;2023-05-07T05:32:25;100860.09;;;8.97;63.40